Coniston, Canada
Current Conditions -  °F | °C
As of 5:00 AM on Sunday 23 Nov 2014 (Local Time) from CYSB Reporting Station
Drizzle Drizzle  
Wind Chill: 30°   Ceiling: 100
Heat Index: 36°   Visibility: 0.25mi
Dew Point: 34°   Wind: 7mph
Humidity: 93%   Direction: 210°SSW
Pressure: 29.83"   Gusts: NA
Location:  46.49°N, 80.85°W
Report Text: CYSB 231000Z 21006KT 1/4SM R22/1800FT/N -DZ FG VV001 02/01 A2983 RMK FG8 SLP115
Loading
Personal Weather Stations






























Interactive Weather Map New forecast layout! Learn more

10-Day Weather Forecast

Advertisements
Track Severe Weather on mobile